sensor_id;sensor_type;location;lat;lon;timestamp;P1;durP1;ratioP1;P2;durP2;ratioP2
8857;SDS011;4465;50.904;4.696;2023-07-30T00:00:49;5.55;;;2.50;;
8857;SDS011;4465;50.904;4.696;2023-07-30T00:03:16;11.35;;;2.80;;
8857;SDS011;4465;50.904;4.696;2023-07-30T00:05:44;9.90;;;2.53;;
8857;SDS011;4465;50.904;4.696;2023-07-30T00:10:46;7.68;;;2.40;;
8857;SDS011;4465;50.904;4.696;2023-07-30T00:13:12;9.23;;;1.92;;
8857;SDS011;4465;50.904;4.696;2023-07-30T00:15:40;8.63;;;2.40;;
8857;SDS011;4465;50.904;4.696;2023-07-30T00:18:09;4.90;;;1.90;;
8857;SDS011;4465;50.904;4.696;2023-07-30T00:20:37;7.93;;;2.28;;
8857;SDS011;4465;50.904;4.696;2023-07-30T00:23:03;3.95;;;2.05;;
8857;SDS011;4465;50.904;4.696;2023-07-30T00:25:29;7.22;;;2.40;;
8857;SDS011;4465;50.904;4.696;2023-07-30T00:27:55;7.55;;;2.30;;
8857;SDS011;4465;50.904;4.696;2023-07-30T00:30:23;6.43;;;2.05;;
8857;SDS011;4465;50.904;4.696;2023-07-30T00:32:49;6.15;;;2.20;;
8857;SDS011;4465;50.904;4.696;2023-07-30T00:35:15;8.52;;;2.05;;
8857;SDS011;4465;50.904;4.696;2023-07-30T00:37:41;10.98;;;2.30;;
8857;SDS011;4465;50.904;4.696;2023-07-30T00:40:09;7.75;;;2.28;;
8857;SDS011;4465;50.904;4.696;2023-07-30T00:42:36;8.05;;;2.38;;
8857;SDS011;4465;50.904;4.696;2023-07-30T00:45:02;11.13;;;2.40;;
8857;SDS011;4465;50.904;4.696;2023-07-30T00:47:29;10.38;;;2.30;;
8857;SDS011;4465;50.904;4.696;2023-07-30T00:49:56;8.80;;;2.90;;
8857;SDS011;4465;50.904;4.696;2023-07-30T00:52:22;9.88;;;2.25;;
8857;SDS011;4465;50.904;4.696;2023-07-30T00:54:50;5.75;;;2.20;;
8857;SDS011;4465;50.904;4.696;2023-07-30T00:57:19;8.20;;;2.13;;
8857;SDS011;4465;50.904;4.696;2023-07-30T00:59:48;15.15;;;2.60;;
8857;SDS011;4465;50.904;4.696;2023-07-30T01:02:16;7.30;;;1.92;;
8857;SDS011;4465;50.904;4.696;2023-07-30T01:04:45;5.03;;;1.70;;
8857;SDS011;4465;50.904;4.696;2023-07-30T01:07:13;9.20;;;1.98;;
8857;SDS011;4465;50.904;4.696;2023-07-30T01:09:39;6.03;;;1.88;;
8857;SDS011;4465;50.904;4.696;2023-07-30T01:12:07;12.57;;;2.35;;
8857;SDS011;4465;50.904;4.696;2023-07-30T01:14:35;6.95;;;1.90;;
8857;SDS011;4465;50.904;4.696;2023-07-30T01:17:03;13.52;;;2.40;;
8857;SDS011;4465;50.904;4.696;2023-07-30T01:19:30;6.10;;;2.17;;
8857;SDS011;4465;50.904;4.696;2023-07-30T01:21:56;13.43;;;3.17;;
8857;SDS011;4465;50.904;4.696;2023-07-30T01:24:23;13.05;;;2.72;;
8857;SDS011;4465;50.904;4.696;2023-07-30T01:26:59;9.85;;;2.28;;
8857;SDS011;4465;50.904;4.696;2023-07-30T01:32:27;7.85;;;2.38;;
8857;SDS011;4465;50.904;4.696;2023-07-30T01:34:56;11.80;;;2.92;;
8857;SDS011;4465;50.904;4.696;2023-07-30T01:37:23;8.60;;;1.95;;
8857;SDS011;4465;50.904;4.696;2023-07-30T01:39:52;5.90;;;2.25;;
8857;SDS011;4465;50.904;4.696;2023-07-30T01:42:19;7.83;;;2.30;;
8857;SDS011;4465;50.904;4.696;2023-07-30T01:44:44;6.18;;;2.03;;
8857;SDS011;4465;50.904;4.696;2023-07-30T01:47:10;9.13;;;2.13;;
8857;SDS011;4465;50.904;4.696;2023-07-30T01:49:36;12.88;;;1.95;;
8857;SDS011;4465;50.904;4.696;2023-07-30T01:52:02;8.45;;;1.98;;
8857;SDS011;4465;50.904;4.696;2023-07-30T01:54:28;8.32;;;2.15;;
8857;SDS011;4465;50.904;4.696;2023-07-30T01:56:54;9.23;;;2.28;;
8857;SDS011;4465;50.904;4.696;2023-07-30T01:59:20;8.05;;;1.88;;
8857;SDS011;4465;50.904;4.696;2023-07-30T02:01:48;24.77;;;3.25;;
8857;SDS011;4465;50.904;4.696;2023-07-30T02:04:16;11.38;;;3.15;;
8857;SDS011;4465;50.904;4.696;2023-07-30T02:06:43;5.68;;;1.95;;
8857;SDS011;4465;50.904;4.696;2023-07-30T02:09:11;8.70;;;2.35;;
8857;SDS011;4465;50.904;4.696;2023-07-30T02:11:37;7.35;;;2.13;;
8857;SDS011;4465;50.904;4.696;2023-07-30T02:14:05;11.40;;;2.35;;
8857;SDS011;4465;50.904;4.696;2023-07-30T02:16:31;9.23;;;1.55;;
8857;SDS011;4465;50.904;4.696;2023-07-30T02:18:57;8.00;;;1.88;;
8857;SDS011;4465;50.904;4.696;2023-07-30T02:21:23;10.90;;;2.45;;
8857;SDS011;4465;50.904;4.696;2023-07-30T02:23:49;7.13;;;2.00;;
8857;SDS011;4465;50.904;4.696;2023-07-30T02:26:15;10.63;;;2.08;;
8857;SDS011;4465;50.904;4.696;2023-07-30T02:28:41;9.63;;;2.35;;
8857;SDS011;4465;50.904;4.696;2023-07-30T02:31:07;13.93;;;2.17;;
8857;SDS011;4465;50.904;4.696;2023-07-30T02:33:35;9.88;;;2.15;;
8857;SDS011;4465;50.904;4.696;2023-07-30T02:36:01;6.65;;;1.70;;
8857;SDS011;4465;50.904;4.696;2023-07-30T02:38:29;11.20;;;1.92;;
8857;SDS011;4465;50.904;4.696;2023-07-30T02:40:58;6.80;;;1.98;;
8857;SDS011;4465;50.904;4.696;2023-07-30T02:43:24;9.02;;;2.42;;
8857;SDS011;4465;50.904;4.696;2023-07-30T02:45:50;9.02;;;1.95;;
8857;SDS011;4465;50.904;4.696;2023-07-30T02:48:15;8.60;;;2.03;;
8857;SDS011;4465;50.904;4.696;2023-07-30T02:50:44;6.60;;;2.10;;
8857;SDS011;4465;50.904;4.696;2023-07-30T02:53:10;8.27;;;2.28;;
8857;SDS011;4465;50.904;4.696;2023-07-30T02:55:36;5.55;;;1.77;;
8857;SDS011;4465;50.904;4.696;2023-07-30T02:58:02;4.85;;;1.50;;
8857;SDS011;4465;50.904;4.696;2023-07-30T03:00:28;6.47;;;1.67;;
8857;SDS011;4465;50.904;4.696;2023-07-30T03:02:55;6.72;;;2.30;;
8857;SDS011;4465;50.904;4.696;2023-07-30T03:05:21;9.60;;;2.15;;
8857;SDS011;4465;50.904;4.696;2023-07-30T03:07:47;9.18;;;1.88;;
8857;SDS011;4465;50.904;4.696;2023-07-30T03:10:13;7.03;;;1.67;;
8857;SDS011;4465;50.904;4.696;2023-07-30T03:12:41;8.50;;;2.53;;
8857;SDS011;4465;50.904;4.696;2023-07-30T03:15:08;9.52;;;2.03;;
8857;SDS011;4465;50.904;4.696;2023-07-30T03:17:34;9.15;;;2.20;;
8857;SDS011;4465;50.904;4.696;2023-07-30T03:20:02;13.15;;;1.70;;
8857;SDS011;4465;50.904;4.696;2023-07-30T03:22:29;9.23;;;2.03;;
8857;SDS011;4465;50.904;4.696;2023-07-30T03:24:58;9.32;;;2.55;;
8857;SDS011;4465;50.904;4.696;2023-07-30T03:27:26;12.55;;;2.10;;
8857;SDS011;4465;50.904;4.696;2023-07-30T03:29:54;10.30;;;2.05;;
8857;SDS011;4465;50.904;4.696;2023-07-30T03:32:19;18.33;;;2.08;;
8857;SDS011;4465;50.904;4.696;2023-07-30T03:34:45;9.32;;;1.75;;
8857;SDS011;4465;50.904;4.696;2023-07-30T03:37:11;8.75;;;1.95;;
8857;SDS011;4465;50.904;4.696;2023-07-30T03:39:39;9.80;;;2.03;;
8857;SDS011;4465;50.904;4.696;2023-07-30T03:42:05;11.52;;;2.15;;
8857;SDS011;4465;50.904;4.696;2023-07-30T03:44:34;8.50;;;2.50;;
8857;SDS011;4465;50.904;4.696;2023-07-30T03:47:00;9.02;;;1.90;;
8857;SDS011;4465;50.904;4.696;2023-07-30T03:49:26;9.70;;;2.03;;
8857;SDS011;4465;50.904;4.696;2023-07-30T03:51:51;10.75;;;2.42;;
8857;SDS011;4465;50.904;4.696;2023-07-30T03:54:17;13.45;;;2.20;;
8857;SDS011;4465;50.904;4.696;2023-07-30T03:56:43;11.68;;;2.05;;
8857;SDS011;4465;50.904;4.696;2023-07-30T03:59:09;7.63;;;2.10;;
8857;SDS011;4465;50.904;4.696;2023-07-30T04:01:35;8.05;;;1.70;;
8857;SDS011;4465;50.904;4.696;2023-07-30T04:04:03;11.88;;;1.90;;
8857;SDS011;4465;50.904;4.696;2023-07-30T04:06:29;11.15;;;1.83;;
8857;SDS011;4465;50.904;4.696;2023-07-30T04:08:55;10.98;;;2.00;;
8857;SDS011;4465;50.904;4.696;2023-07-30T04:11:21;7.57;;;2.25;;
8857;SDS011;4465;50.904;4.696;2023-07-30T04:13:49;7.88;;;1.73;;
8857;SDS011;4465;50.904;4.696;2023-07-30T04:16:15;8.13;;;1.73;;
8857;SDS011;4465;50.904;4.696;2023-07-30T04:18:41;11.52;;;2.13;;
8857;SDS011;4465;50.904;4.696;2023-07-30T04:21:07;12.52;;;2.80;;
8857;SDS011;4465;50.904;4.696;2023-07-30T04:23:33;12.98;;;2.08;;
8857;SDS011;4465;50.904;4.696;2023-07-30T04:26:01;7.90;;;2.35;;
8857;SDS011;4465;50.904;4.696;2023-07-30T04:28:29;12.98;;;2.40;;
8857;SDS011;4465;50.904;4.696;2023-07-30T04:30:55;9.65;;;2.03;;
8857;SDS011;4465;50.904;4.696;2023-07-30T04:33:21;9.20;;;2.35;;
8857;SDS011;4465;50.904;4.696;2023-07-30T04:35:46;15.93;;;2.25;;
8857;SDS011;4465;50.904;4.696;2023-07-30T04:38:12;8.57;;;2.15;;
8857;SDS011;4465;50.904;4.696;2023-07-30T04:40:39;13.65;;;2.28;;
8857;SDS011;4465;50.904;4.696;2023-07-30T04:43:05;8.60;;;1.92;;
8857;SDS011;4465;50.904;4.696;2023-07-30T04:45:31;15.68;;;2.35;;
8857;SDS011;4465;50.904;4.696;2023-07-30T04:47:56;9.85;;;1.85;;
8857;SDS011;4465;50.904;4.696;2023-07-30T04:50:24;14.15;;;2.63;;
8857;SDS011;4465;50.904;4.696;2023-07-30T04:52:53;14.18;;;2.00;;
8857;SDS011;4465;50.904;4.696;2023-07-30T04:55:18;9.25;;;2.05;;
8857;SDS011;4465;50.904;4.696;2023-07-30T04:57:44;12.05;;;2.30;;
8857;SDS011;4465;50.904;4.696;2023-07-30T05:00:10;8.25;;;1.85;;
8857;SDS011;4465;50.904;4.696;2023-07-30T05:02:37;11.38;;;1.77;;
8857;SDS011;4465;50.904;4.696;2023-07-30T05:05:03;14.20;;;2.13;;
8857;SDS011;4465;50.904;4.696;2023-07-30T05:07:31;5.35;;;1.63;;
8857;SDS011;4465;50.904;4.696;2023-07-30T05:09:57;12.95;;;2.00;;
8857;SDS011;4465;50.904;4.696;2023-07-30T05:12:23;13.95;;;2.58;;
8857;SDS011;4465;50.904;4.696;2023-07-30T05:14:51;13.07;;;2.13;;
8857;SDS011;4465;50.904;4.696;2023-07-30T05:17:19;13.73;;;2.30;;
8857;SDS011;4465;50.904;4.696;2023-07-30T05:19:47;11.57;;;2.30;;
8857;SDS011;4465;50.904;4.696;2023-07-30T05:22:13;8.13;;;1.77;;
8857;SDS011;4465;50.904;4.696;2023-07-30T05:24:41;13.10;;;2.00;;
8857;SDS011;4465;50.904;4.696;2023-07-30T05:27:07;20.77;;;3.00;;
8857;SDS011;4465;50.904;4.696;2023-07-30T05:29:35;10.82;;;1.77;;
8857;SDS011;4465;50.904;4.696;2023-07-30T05:32:03;12.40;;;2.30;;
8857;SDS011;4465;50.904;4.696;2023-07-30T05:34:30;10.30;;;1.90;;
8857;SDS011;4465;50.904;4.696;2023-07-30T05:36:56;11.07;;;2.25;;
8857;SDS011;4465;50.904;4.696;2023-07-30T05:39:22;17.73;;;2.25;;
8857;SDS011;4465;50.904;4.696;2023-07-30T05:41:48;10.25;;;2.00;;
8857;SDS011;4465;50.904;4.696;2023-07-30T05:44:13;11.57;;;1.65;;
8857;SDS011;4465;50.904;4.696;2023-07-30T05:46:42;13.10;;;2.28;;
8857;SDS011;4465;50.904;4.696;2023-07-30T05:49:10;11.25;;;1.92;;
8857;SDS011;4465;50.904;4.696;2023-07-30T05:51:36;9.32;;;1.83;;
8857;SDS011;4465;50.904;4.696;2023-07-30T05:54:04;11.80;;;2.17;;
8857;SDS011;4465;50.904;4.696;2023-07-30T05:56:30;10.98;;;2.05;;
8857;SDS011;4465;50.904;4.696;2023-07-30T05:58:56;10.85;;;2.03;;
8857;SDS011;4465;50.904;4.696;2023-07-30T06:01:26;13.43;;;1.98;;
8857;SDS011;4465;50.904;4.696;2023-07-30T06:03:57;8.73;;;2.30;;
8857;SDS011;4465;50.904;4.696;2023-07-30T06:06:25;9.38;;;2.05;;
8857;SDS011;4465;50.904;4.696;2023-07-30T06:08:54;12.75;;;2.20;;
8857;SDS011;4465;50.904;4.696;2023-07-30T06:11:22;19.15;;;2.40;;
8857;SDS011;4465;50.904;4.696;2023-07-30T06:13:48;9.70;;;2.15;;
8857;SDS011;4465;50.904;4.696;2023-07-30T06:16:17;10.95;;;2.35;;
8857;SDS011;4465;50.904;4.696;2023-07-30T06:18:44;16.42;;;2.55;;
8857;SDS011;4465;50.904;4.696;2023-07-30T06:21:10;23.70;;;2.92;;
8857;SDS011;4465;50.904;4.696;2023-07-30T06:23:36;14.10;;;2.47;;
8857;SDS011;4465;50.904;4.696;2023-07-30T06:26:04;11.95;;;2.28;;
8857;SDS011;4465;50.904;4.696;2023-07-30T06:28:30;20.75;;;3.83;;
8857;SDS011;4465;50.904;4.696;2023-07-30T06:30:59;13.48;;;2.03;;
8857;SDS011;4465;50.904;4.696;2023-07-30T06:33:26;10.32;;;2.63;;
8857;SDS011;4465;50.904;4.696;2023-07-30T06:35:52;12.82;;;2.45;;
8857;SDS011;4465;50.904;4.696;2023-07-30T06:38:18;10.25;;;1.90;;
8857;SDS011;4465;50.904;4.696;2023-07-30T06:40:46;12.32;;;2.13;;
8857;SDS011;4465;50.904;4.696;2023-07-30T06:43:12;15.63;;;2.10;;
8857;SDS011;4465;50.904;4.696;2023-07-30T06:45:40;12.23;;;1.85;;
8857;SDS011;4465;50.904;4.696;2023-07-30T06:48:05;12.05;;;2.20;;
8857;SDS011;4465;50.904;4.696;2023-07-30T06:50:31;12.63;;;2.30;;
8857;SDS011;4465;50.904;4.696;2023-07-30T06:52:57;13.27;;;1.92;;
8857;SDS011;4465;50.904;4.696;2023-07-30T06:55:25;7.20;;;1.90;;
8857;SDS011;4465;50.904;4.696;2023-07-30T06:57:51;16.58;;;2.30;;
8857;SDS011;4465;50.904;4.696;2023-07-30T07:00:17;11.50;;;2.15;;
8857;SDS011;4465;50.904;4.696;2023-07-30T07:02:47;13.48;;;2.40;;
8857;SDS011;4465;50.904;4.696;2023-07-30T07:05:14;16.70;;;2.78;;
8857;SDS011;4465;50.904;4.696;2023-07-30T07:07:40;12.82;;;2.50;;
8857;SDS011;4465;50.904;4.696;2023-07-30T07:10:06;10.88;;;1.95;;
8857;SDS011;4465;50.904;4.696;2023-07-30T07:12:34;12.25;;;1.95;;
8857;SDS011;4465;50.904;4.696;2023-07-30T07:15:00;19.33;;;2.53;;
8857;SDS011;4465;50.904;4.696;2023-07-30T07:17:27;10.02;;;3.00;;
8857;SDS011;4465;50.904;4.696;2023-07-30T07:19:56;14.43;;;2.22;;
8857;SDS011;4465;50.904;4.696;2023-07-30T07:22:22;15.20;;;2.85;;
8857;SDS011;4465;50.904;4.696;2023-07-30T07:24:53;6.75;;;2.22;;
8857;SDS011;4465;50.904;4.696;2023-07-30T07:27:19;11.95;;;2.00;;
8857;SDS011;4465;50.904;4.696;2023-07-30T07:29:45;9.90;;;1.80;;
8857;SDS011;4465;50.904;4.696;2023-07-30T07:32:14;11.43;;;2.55;;
8857;SDS011;4465;50.904;4.696;2023-07-30T07:34:40;14.90;;;2.20;;
8857;SDS011;4465;50.904;4.696;2023-07-30T07:37:06;11.27;;;2.58;;
8857;SDS011;4465;50.904;4.696;2023-07-30T07:39:32;12.40;;;2.40;;
8857;SDS011;4465;50.904;4.696;2023-07-30T07:41:58;13.13;;;2.80;;
8857;SDS011;4465;50.904;4.696;2023-07-30T07:44:27;11.65;;;1.77;;
8857;SDS011;4465;50.904;4.696;2023-07-30T07:46:53;16.83;;;2.30;;
8857;SDS011;4465;50.904;4.696;2023-07-30T07:49:19;10.05;;;2.00;;
8857;SDS011;4465;50.904;4.696;2023-07-30T07:51:45;11.55;;;2.30;;
8857;SDS011;4465;50.904;4.696;2023-07-30T07:54:13;7.47;;;1.67;;
8857;SDS011;4465;50.904;4.696;2023-07-30T07:56:39;9.52;;;1.90;;
8857;SDS011;4465;50.904;4.696;2023-07-30T07:59:07;13.25;;;2.28;;
8857;SDS011;4465;50.904;4.696;2023-07-30T08:01:33;11.68;;;2.15;;
8857;SDS011;4465;50.904;4.696;2023-07-30T08:04:02;9.43;;;1.77;;
8857;SDS011;4465;50.904;4.696;2023-07-30T08:06:28;9.45;;;1.63;;
8857;SDS011;4465;50.904;4.696;2023-07-30T08:08:54;10.93;;;2.10;;
8857;SDS011;4465;50.904;4.696;2023-07-30T08:11:23;7.95;;;1.83;;
8857;SDS011;4465;50.904;4.696;2023-07-30T08:13:51;8.65;;;1.55;;
8857;SDS011;4465;50.904;4.696;2023-07-30T08:16:16;12.68;;;1.95;;
8857;SDS011;4465;50.904;4.696;2023-07-30T08:18:42;9.90;;;1.70;;
8857;SDS011;4465;50.904;4.696;2023-07-30T08:21:08;7.32;;;1.88;;
8857;SDS011;4465;50.904;4.696;2023-07-30T08:23:37;11.35;;;2.08;;
8857;SDS011;4465;50.904;4.696;2023-07-30T08:26:03;9.93;;;1.98;;
8857;SDS011;4465;50.904;4.696;2023-07-30T08:28:28;12.07;;;2.63;;
8857;SDS011;4465;50.904;4.696;2023-07-30T08:30:59;3.38;;;1.10;;
8857;SDS011;4465;50.904;4.696;2023-07-30T08:33:27;7.35;;;1.33;;
8857;SDS011;4465;50.904;4.696;2023-07-30T08:35:56;7.25;;;1.70;;
8857;SDS011;4465;50.904;4.696;2023-07-30T08:38:22;6.47;;;1.52;;
8857;SDS011;4465;50.904;4.696;2023-07-30T08:40:49;6.95;;;1.55;;
8857;SDS011;4465;50.904;4.696;2023-07-30T08:43:18;3.80;;;1.10;;
8857;SDS011;4465;50.904;4.696;2023-07-30T08:45:44;8.57;;;1.65;;
8857;SDS011;4465;50.904;4.696;2023-07-30T08:48:10;8.80;;;1.65;;
8857;SDS011;4465;50.904;4.696;2023-07-30T08:50:36;5.53;;;1.48;;
8857;SDS011;4465;50.904;4.696;2023-07-30T08:53:05;8.10;;;1.33;;
8857;SDS011;4465;50.904;4.696;2023-07-30T08:55:33;8.50;;;1.50;;
8857;SDS011;4465;50.904;4.696;2023-07-30T08:58:01;7.88;;;1.50;;
8857;SDS011;4465;50.904;4.696;2023-07-30T09:00:28;7.03;;;1.60;;
8857;SDS011;4465;50.904;4.696;2023-07-30T09:02:59;6.28;;;1.80;;
8857;SDS011;4465;50.904;4.696;2023-07-30T09:05:30;8.13;;;1.80;;
8857;SDS011;4465;50.904;4.696;2023-07-30T09:07:57;7.10;;;1.58;;
8857;SDS011;4465;50.904;4.696;2023-07-30T09:10:23;7.78;;;1.40;;
8857;SDS011;4465;50.904;4.696;2023-07-30T09:12:54;9.95;;;1.90;;
8857;SDS011;4465;50.904;4.696;2023-07-30T09:15:31;8.20;;;1.45;;
8857;SDS011;4465;50.904;4.696;2023-07-30T09:18:02;11.98;;;1.85;;
8857;SDS011;4465;50.904;4.696;2023-07-30T09:20:39;8.00;;;1.88;;
8857;SDS011;4465;50.904;4.696;2023-07-30T09:23:09;7.43;;;1.75;;
8857;SDS011;4465;50.904;4.696;2023-07-30T09:25:35;4.90;;;1.55;;
8857;SDS011;4465;50.904;4.696;2023-07-30T09:28:02;5.43;;;1.58;;
8857;SDS011;4465;50.904;4.696;2023-07-30T09:30:29;3.97;;;1.00;;
8857;SDS011;4465;50.904;4.696;2023-07-30T09:32:55;5.27;;;1.40;;
8857;SDS011;4465;50.904;4.696;2023-07-30T09:35:23;4.80;;;1.30;;
8857;SDS011;4465;50.904;4.696;2023-07-30T09:37:50;4.28;;;1.02;;
8857;SDS011;4465;50.904;4.696;2023-07-30T09:40:31;7.55;;;1.52;;
8857;SDS011;4465;50.904;4.696;2023-07-30T09:43:01;8.25;;;1.70;;
8857;SDS011;4465;50.904;4.696;2023-07-30T09:45:34;6.05;;;1.30;;
8857;SDS011;4465;50.904;4.696;2023-07-30T09:48:02;5.38;;;1.60;;
8857;SDS011;4465;50.904;4.696;2023-07-30T09:50:30;5.78;;;1.40;;
8857;SDS011;4465;50.904;4.696;2023-07-30T09:53:00;8.32;;;1.50;;
8857;SDS011;4465;50.904;4.696;2023-07-30T09:55:30;8.30;;;1.67;;
8857;SDS011;4465;50.904;4.696;2023-07-30T09:57:56;5.63;;;1.40;;
8857;SDS011;4465;50.904;4.696;2023-07-30T10:00:22;5.95;;;1.23;;
8857;SDS011;4465;50.904;4.696;2023-07-30T10:02:50;4.15;;;1.27;;
8857;SDS011;4465;50.904;4.696;2023-07-30T10:05:19;6.32;;;1.63;;
8857;SDS011;4465;50.904;4.696;2023-07-30T10:07:53;6.57;;;1.65;;
8857;SDS011;4465;50.904;4.696;2023-07-30T10:10:25;6.43;;;1.60;;
8857;SDS011;4465;50.904;4.696;2023-07-30T10:12:55;9.00;;;1.42;;
8857;SDS011;4465;50.904;4.696;2023-07-30T10:15:26;7.20;;;1.50;;
8857;SDS011;4465;50.904;4.696;2023-07-30T10:17:52;5.18;;;1.70;;
8857;SDS011;4465;50.904;4.696;2023-07-30T10:20:25;5.57;;;1.38;;
8857;SDS011;4465;50.904;4.696;2023-07-30T10:22:55;12.57;;;2.47;;
8857;SDS011;4465;50.904;4.696;2023-07-30T10:25:28;5.35;;;1.55;;
8857;SDS011;4465;50.904;4.696;2023-07-30T10:27:56;4.68;;;1.58;;
8857;SDS011;4465;50.904;4.696;2023-07-30T10:30:29;7.47;;;1.70;;
8857;SDS011;4465;50.904;4.696;2023-07-30T10:33:04;9.50;;;1.92;;
8857;SDS011;4465;50.904;4.696;2023-07-30T10:38:00;7.40;;;1.85;;
8857;SDS011;4465;50.904;4.696;2023-07-30T10:40:38;7.35;;;2.13;;
8857;SDS011;4465;50.904;4.696;2023-07-30T10:43:13;6.60;;;1.90;;
8857;SDS011;4465;50.904;4.696;2023-07-30T10:45:50;5.75;;;1.92;;
8857;SDS011;4465;50.904;4.696;2023-07-30T10:48:18;4.97;;;2.28;;
8857;SDS011;4465;50.904;4.696;2023-07-30T10:50:58;7.90;;;2.05;;
8857;SDS011;4465;50.904;4.696;2023-07-30T10:53:26;5.00;;;1.52;;
8857;SDS011;4465;50.904;4.696;2023-07-30T10:55:52;7.80;;;1.90;;
8857;SDS011;4465;50.904;4.696;2023-07-30T10:58:20;5.65;;;1.75;;
8857;SDS011;4465;50.904;4.696;2023-07-30T11:00:49;5.82;;;1.60;;
8857;SDS011;4465;50.904;4.696;2023-07-30T11:03:15;6.75;;;1.52;;
8857;SDS011;4465;50.904;4.696;2023-07-30T11:05:41;5.85;;;1.25;;
8857;SDS011;4465;50.904;4.696;2023-07-30T11:08:11;10.10;;;1.80;;
8857;SDS011;4465;50.904;4.696;2023-07-30T11:10:46;5.35;;;1.50;;
8857;SDS011;4465;50.904;4.696;2023-07-30T11:13:13;5.75;;;1.55;;
8857;SDS011;4465;50.904;4.696;2023-07-30T11:15:43;10.05;;;1.50;;
8857;SDS011;4465;50.904;4.696;2023-07-30T11:18:09;7.90;;;1.40;;
8857;SDS011;4465;50.904;4.696;2023-07-30T11:20:39;5.95;;;1.85;;
8857;SDS011;4465;50.904;4.696;2023-07-30T11:23:18;5.05;;;1.33;;
8857;SDS011;4465;50.904;4.696;2023-07-30T11:25:45;5.05;;;1.88;;
8857;SDS011;4465;50.904;4.696;2023-07-30T11:28:13;5.30;;;1.42;;
8857;SDS011;4465;50.904;4.696;2023-07-30T11:30:39;7.60;;;1.45;;
8857;SDS011;4465;50.904;4.696;2023-07-30T11:33:05;6.40;;;1.52;;
8857;SDS011;4465;50.904;4.696;2023-07-30T11:35:31;4.97;;;1.23;;
8857;SDS011;4465;50.904;4.696;2023-07-30T11:38:00;4.30;;;1.35;;
8857;SDS011;4465;50.904;4.696;2023-07-30T11:40:26;6.35;;;1.50;;
8857;SDS011;4465;50.904;4.696;2023-07-30T11:42:52;6.38;;;1.33;;
8857;SDS011;4465;50.904;4.696;2023-07-30T11:47:46;6.65;;;1.55;;
8857;SDS011;4465;50.904;4.696;2023-07-30T11:50:12;5.25;;;1.50;;
8857;SDS011;4465;50.904;4.696;2023-07-30T11:52:54;8.63;;;1.75;;
8857;SDS011;4465;50.904;4.696;2023-07-30T11:55:21;9.32;;;1.40;;
8857;SDS011;4465;50.904;4.696;2023-07-30T11:58:02;7.30;;;1.40;;
8857;SDS011;4465;50.904;4.696;2023-07-30T12:00:28;5.72;;;1.10;;
8857;SDS011;4465;50.904;4.696;2023-07-30T12:02:54;9.00;;;1.33;;
8857;SDS011;4465;50.904;4.696;2023-07-30T12:05:22;5.90;;;1.50;;
8857;SDS011;4465;50.904;4.696;2023-07-30T12:08:01;4.43;;;1.02;;
8857;SDS011;4465;50.904;4.696;2023-07-30T12:10:47;6.57;;;1.35;;
8857;SDS011;4465;50.904;4.696;2023-07-30T12:13:17;2.92;;;1.38;;
8857;SDS011;4465;50.904;4.696;2023-07-30T12:15:53;2.28;;;1.08;;
8857;SDS011;4465;50.904;4.696;2023-07-30T12:18:21;4.07;;;1.10;;
8857;SDS011;4465;50.904;4.696;2023-07-30T12:20:49;4.50;;;1.02;;
8857;SDS011;4465;50.904;4.696;2023-07-30T12:23:18;5.10;;;1.00;;
8857;SDS011;4465;50.904;4.696;2023-07-30T12:25:46;6.25;;;0.73;;
8857;SDS011;4465;50.904;4.696;2023-07-30T12:28:12;7.22;;;1.10;;
8857;SDS011;4465;50.904;4.696;2023-07-30T12:30:39;7.47;;;1.00;;
8857;SDS011;4465;50.904;4.696;2023-07-30T12:33:05;4.35;;;0.70;;
8857;SDS011;4465;50.904;4.696;2023-07-30T12:35:31;4.00;;;0.77;;
8857;SDS011;4465;50.904;4.696;2023-07-30T12:37:58;4.85;;;0.90;;
8857;SDS011;4465;50.904;4.696;2023-07-30T12:40:24;6.00;;;1.27;;
8857;SDS011;4465;50.904;4.696;2023-07-30T12:42:50;3.85;;;1.00;;
8857;SDS011;4465;50.904;4.696;2023-07-30T12:45:18;3.83;;;1.10;;
8857;SDS011;4465;50.904;4.696;2023-07-30T12:47:44;2.67;;;0.70;;
8857;SDS011;4465;50.904;4.696;2023-07-30T12:50:13;4.40;;;1.15;;
8857;SDS011;4465;50.904;4.696;2023-07-30T12:52:39;7.85;;;1.30;;
8857;SDS011;4465;50.904;4.696;2023-07-30T12:55:07;5.07;;;1.02;;
8857;SDS011;4465;50.904;4.696;2023-07-30T12:57:33;6.13;;;1.15;;
8857;SDS011;4465;50.904;4.696;2023-07-30T13:00:00;4.90;;;1.02;;
8857;SDS011;4465;50.904;4.696;2023-07-30T13:02:26;3.90;;;1.20;;
8857;SDS011;4465;50.904;4.696;2023-07-30T13:04:52;2.60;;;0.80;;
8857;SDS011;4465;50.904;4.696;2023-07-30T13:07:18;5.00;;;1.20;;
8857;SDS011;4465;50.904;4.696;2023-07-30T13:09:46;5.35;;;1.10;;
8857;SDS011;4465;50.904;4.696;2023-07-30T13:12:20;6.60;;;1.57;;
8857;SDS011;4465;50.904;4.696;2023-07-30T13:14:46;6.57;;;1.42;;
8857;SDS011;4465;50.904;4.696;2023-07-30T13:17:14;4.88;;;1.30;;
8857;SDS011;4465;50.904;4.696;2023-07-30T13:19:40;2.95;;;1.58;;
8857;SDS011;4465;50.904;4.696;2023-07-30T13:22:09;6.60;;;1.33;;
8857;SDS011;4465;50.904;4.696;2023-07-30T13:24:35;6.70;;;1.35;;
8857;SDS011;4465;50.904;4.696;2023-07-30T13:27:01;3.70;;;0.95;;
8857;SDS011;4465;50.904;4.696;2023-07-30T13:29:27;2.83;;;0.90;;
8857;SDS011;4465;50.904;4.696;2023-07-30T13:31:53;5.85;;;0.80;;
8857;SDS011;4465;50.904;4.696;2023-07-30T13:34:19;1.55;;;0.85;;
8857;SDS011;4465;50.904;4.696;2023-07-30T13:36:45;4.20;;;0.90;;
8857;SDS011;4465;50.904;4.696;2023-07-30T13:39:11;4.95;;;0.85;;
8857;SDS011;4465;50.904;4.696;2023-07-30T13:41:37;6.28;;;1.10;;
8857;SDS011;4465;50.904;4.696;2023-07-30T13:44:03;4.40;;;0.93;;
8857;SDS011;4465;50.904;4.696;2023-07-30T13:46:29;2.25;;;0.80;;
8857;SDS011;4465;50.904;4.696;2023-07-30T13:48:57;5.03;;;1.30;;
8857;SDS011;4465;50.904;4.696;2023-07-30T13:51:23;4.57;;;1.27;;
8857;SDS011;4465;50.904;4.696;2023-07-30T13:53:48;4.50;;;1.02;;
8857;SDS011;4465;50.904;4.696;2023-07-30T13:56:17;5.82;;;1.10;;
8857;SDS011;4465;50.904;4.696;2023-07-30T13:58:43;3.67;;;0.98;;
8857;SDS011;4465;50.904;4.696;2023-07-30T14:01:09;6.10;;;1.30;;
8857;SDS011;4465;50.904;4.696;2023-07-30T14:03:35;4.22;;;1.40;;
8857;SDS011;4465;50.904;4.696;2023-07-30T14:06:01;3.70;;;1.15;;
8857;SDS011;4465;50.904;4.696;2023-07-30T14:08:26;4.43;;;1.20;;
8857;SDS011;4465;50.904;4.696;2023-07-30T14:10:52;5.75;;;1.27;;
8857;SDS011;4465;50.904;4.696;2023-07-30T14:13:21;3.55;;;1.30;;
8857;SDS011;4465;50.904;4.696;2023-07-30T14:15:49;4.28;;;1.17;;
8857;SDS011;4465;50.904;4.696;2023-07-30T14:18:15;3.80;;;1.20;;
8857;SDS011;4465;50.904;4.696;2023-07-30T14:20:41;5.47;;;1.80;;
8857;SDS011;4465;50.904;4.696;2023-07-30T14:23:07;5.28;;;1.30;;
8857;SDS011;4465;50.904;4.696;2023-07-30T14:25:33;3.63;;;1.05;;
8857;SDS011;4465;50.904;4.696;2023-07-30T14:27:59;2.70;;;1.20;;
8857;SDS011;4465;50.904;4.696;2023-07-30T14:30:25;5.88;;;1.40;;
8857;SDS011;4465;50.904;4.696;2023-07-30T14:32:53;3.38;;;1.20;;
8857;SDS011;4465;50.904;4.696;2023-07-30T14:35:19;5.72;;;1.40;;
8857;SDS011;4465;50.904;4.696;2023-07-30T14:37:45;3.25;;;1.27;;
8857;SDS011;4465;50.904;4.696;2023-07-30T14:40:14;3.60;;;1.23;;
8857;SDS011;4465;50.904;4.696;2023-07-30T14:42:40;4.75;;;1.50;;
8857;SDS011;4465;50.904;4.696;2023-07-30T14:45:08;4.65;;;1.38;;
8857;SDS011;4465;50.904;4.696;2023-07-30T14:47:35;10.40;;;1.33;;
8857;SDS011;4465;50.904;4.696;2023-07-30T14:50:03;3.22;;;1.17;;
8857;SDS011;4465;50.904;4.696;2023-07-30T14:52:30;4.83;;;1.33;;
8857;SDS011;4465;50.904;4.696;2023-07-30T14:54:56;3.80;;;1.20;;
8857;SDS011;4465;50.904;4.696;2023-07-30T14:57:21;3.83;;;1.25;;
8857;SDS011;4465;50.904;4.696;2023-07-30T14:59:47;4.18;;;1.65;;
8857;SDS011;4465;50.904;4.696;2023-07-30T15:02:13;3.35;;;1.30;;
8857;SDS011;4465;50.904;4.696;2023-07-30T15:04:42;4.10;;;1.58;;
8857;SDS011;4465;50.904;4.696;2023-07-30T15:07:08;6.43;;;1.67;;
8857;SDS011;4465;50.904;4.696;2023-07-30T15:09:35;4.97;;;1.80;;
8857;SDS011;4465;50.904;4.696;2023-07-30T15:12:05;6.15;;;1.60;;
8857;SDS011;4465;50.904;4.696;2023-07-30T15:14:32;4.43;;;1.50;;
8857;SDS011;4465;50.904;4.696;2023-07-30T15:17:03;5.22;;;1.30;;
8857;SDS011;4465;50.904;4.696;2023-07-30T15:19:30;6.28;;;1.40;;
8857;SDS011;4465;50.904;4.696;2023-07-30T15:21:59;6.90;;;1.73;;